sensor_id;sensor_type;location;lat;lon;timestamp;pressure;altitude;pressure_sealevel;temperature;humidity
64821;BME280;51256;55.654;37.264;2022-09-28T00:00:56;98071.75;;;8.91;73.45
64821;BME280;51256;55.654;37.264;2022-09-28T00:03:21;98063.78;;;8.91;73.35
64821;BME280;51256;55.654;37.264;2022-09-28T00:05:47;98063.31;;;8.88;73.73
64821;BME280;51256;55.654;37.264;2022-09-28T00:08:12;98066.75;;;8.88;73.87
64821;BME280;51256;55.654;37.264;2022-09-28T00:10:38;98065.78;;;8.89;73.83
64821;BME280;51256;55.654;37.264;2022-09-28T00:13:05;98060.47;;;8.89;73.82
64821;BME280;51256;55.654;37.264;2022-09-28T00:15:32;98063.31;;;8.88;73.76
64821;BME280;51256;55.654;37.264;2022-09-28T00:17:57;98059.31;;;8.84;74.05
64821;BME280;51256;55.654;37.264;2022-09-28T00:20:23;98057.50;;;8.76;74.63
64821;BME280;51256;55.654;37.264;2022-09-28T00:22:48;98041.00;;;8.66;74.47
64821;BME280;51256;55.654;37.264;2022-09-28T00:25:14;98040.53;;;8.54;74.69
64821;BME280;51256;55.654;37.264;2022-09-28T00:27:41;98051.75;;;8.56;75.34
64821;BME280;51256;55.654;37.264;2022-09-28T00:30:07;98037.53;;;8.49;75.60
64821;BME280;51256;55.654;37.264;2022-09-28T00:32:33;98034.03;;;8.40;75.87
64821;BME280;51256;55.654;37.264;2022-09-28T00:34:59;98034.69;;;8.34;75.83
64821;BME280;51256;55.654;37.264;2022-09-28T00:37:24;98022.16;;;8.27;76.39
64821;BME280;51256;55.654;37.264;2022-09-28T00:39:49;98031.88;;;8.27;76.47
64821;BME280;51256;55.654;37.264;2022-09-28T00:42:21;98014.88;;;8.21;76.62
64821;BME280;51256;55.654;37.264;2022-09-28T00:44:53;98029.41;;;8.25;76.95
64821;BME280;51256;55.654;37.264;2022-09-28T00:50:17;98020.16;;;8.21;77.21
64821;BME280;51256;55.654;37.264;2022-09-28T00:53:04;98019.78;;;8.16;77.56
64821;BME280;51256;55.654;37.264;2022-09-28T00:55:41;98005.78;;;8.16;77.67
64821;BME280;51256;55.654;37.264;2022-09-28T00:58:09;98012.88;;;8.15;78.06
64821;BME280;51256;55.654;37.264;2022-09-28T01:00:37;98010.56;;;8.20;77.96
64821;BME280;51256;55.654;37.264;2022-09-28T01:03:05;97999.66;;;8.23;78.12
64821;BME280;51256;55.654;37.264;2022-09-28T01:05:33;98005.13;;;8.30;77.71
64821;BME280;51256;55.654;37.264;2022-09-28T01:08:00;97995.72;;;8.27;77.83
64821;BME280;51256;55.654;37.264;2022-09-28T01:10:30;97990.25;;;8.29;77.85
64821;BME280;51256;55.654;37.264;2022-09-28T01:12:56;97994.69;;;8.28;77.56
64821;BME280;51256;55.654;37.264;2022-09-28T01:15:23;97985.59;;;8.31;77.66
64821;BME280;51256;55.654;37.264;2022-09-28T01:18:12;97994.03;;;8.35;77.31
64821;BME280;51256;55.654;37.264;2022-09-28T01:29:14;97981.47;;;8.37;77.38
64821;BME280;51256;55.654;37.264;2022-09-28T01:31:45;97964.31;;;8.33;76.99
64821;BME280;51256;55.654;37.264;2022-09-28T01:34:18;97970.91;;;8.37;77.44
64821;BME280;51256;55.654;37.264;2022-09-28T01:36:47;97964.13;;;8.34;77.18
64821;BME280;51256;55.654;37.264;2022-09-28T01:39:18;97962.81;;;8.30;77.37
64821;BME280;51256;55.654;37.264;2022-09-28T01:41:48;97953.56;;;8.26;77.51
64821;BME280;51256;55.654;37.264;2022-09-28T01:44:17;97953.72;;;8.33;77.49
64821;BME280;51256;55.654;37.264;2022-09-28T01:46:48;97965.94;;;8.34;77.50
64821;BME280;51256;55.654;37.264;2022-09-28T01:49:20;97958.34;;;8.31;77.55
64821;BME280;51256;55.654;37.264;2022-09-28T01:54:16;97957.19;;;8.25;77.84
64821;BME280;51256;55.654;37.264;2022-09-28T01:56:50;97952.75;;;8.25;77.76
64821;BME280;51256;55.654;37.264;2022-09-28T01:59:23;97951.09;;;8.24;77.64
64821;BME280;51256;55.654;37.264;2022-09-28T02:01:54;97941.00;;;8.28;77.69
64821;BME280;51256;55.654;37.264;2022-09-28T02:04:27;97944.31;;;8.22;77.85
64821;BME280;51256;55.654;37.264;2022-09-28T02:07:13;97951.44;;;8.21;78.11
64821;BME280;51256;55.654;37.264;2022-09-28T02:09:46;97932.75;;;8.23;78.17
64821;BME280;51256;55.654;37.264;2022-09-28T02:12:21;97928.94;;;8.25;77.60
64821;BME280;51256;55.654;37.264;2022-09-28T02:14:48;97930.25;;;8.30;77.58
64821;BME280;51256;55.654;37.264;2022-09-28T02:17:16;97931.25;;;8.28;77.69
64821;BME280;51256;55.654;37.264;2022-09-28T02:19:43;97920.34;;;8.23;77.92
64821;BME280;51256;55.654;37.264;2022-09-28T02:24:47;97918.38;;;8.17;78.21
64821;BME280;51256;55.654;37.264;2022-09-28T02:30:03;97916.25;;;8.13;78.39
64821;BME280;51256;55.654;37.264;2022-09-28T02:32:31;97920.38;;;8.15;78.46
64821;BME280;51256;55.654;37.264;2022-09-28T02:34:57;97904.00;;;8.11;78.19
64821;BME280;51256;55.654;37.264;2022-09-28T02:37:24;97908.31;;;8.13;78.41
64821;BME280;51256;55.654;37.264;2022-09-28T02:39:50;97893.94;;;8.07;78.28
64821;BME280;51256;55.654;37.264;2022-09-28T02:42:23;97900.38;;;8.04;78.53
64821;BME280;51256;55.654;37.264;2022-09-28T02:48:08;97887.34;;;8.03;78.26
64821;BME280;51256;55.654;37.264;2022-09-28T02:54:03;97889.63;;;8.06;78.66
64821;BME280;51256;55.654;37.264;2022-09-28T03:05:21;97884.03;;;8.01;78.85
64821;BME280;51256;55.654;37.264;2022-09-28T03:08:06;97882.22;;;8.01;78.48
64821;BME280;51256;55.654;37.264;2022-09-28T03:10:40;97870.50;;;8.04;78.59
64821;BME280;51256;55.654;37.264;2022-09-28T03:13:08;97881.53;;;8.07;78.66
64821;BME280;51256;55.654;37.264;2022-09-28T03:15:35;97874.59;;;8.15;78.89
64821;BME280;51256;55.654;37.264;2022-09-28T03:18:01;97867.00;;;8.11;78.33
64821;BME280;51256;55.654;37.264;2022-09-28T03:20:28;97868.00;;;8.10;78.35
64821;BME280;51256;55.654;37.264;2022-09-28T03:22:54;97874.09;;;8.11;78.90
64821;BME280;51256;55.654;37.264;2022-09-28T03:25:19;97874.41;;;8.16;78.53
64821;BME280;51256;55.654;37.264;2022-09-28T03:27:45;97875.09;;;8.18;78.26
64821;BME280;51256;55.654;37.264;2022-09-28T03:30:11;97869.31;;;8.15;78.64
64821;BME280;51256;55.654;37.264;2022-09-28T03:32:37;97867.66;;;8.14;78.61
64821;BME280;51256;55.654;37.264;2022-09-28T03:35:05;97869.47;;;8.13;78.20
64821;BME280;51256;55.654;37.264;2022-09-28T03:37:31;97864.38;;;8.11;78.79
64821;BME280;51256;55.654;37.264;2022-09-28T03:39:56;97860.56;;;8.14;78.82
64821;BME280;51256;55.654;37.264;2022-09-28T03:42:22;97855.44;;;8.13;78.55
64821;BME280;51256;55.654;37.264;2022-09-28T03:44:47;97847.66;;;8.11;79.01
64821;BME280;51256;55.654;37.264;2022-09-28T03:47:13;97836.28;;;8.10;78.50
64821;BME280;51256;55.654;37.264;2022-09-28T03:49:40;97841.75;;;8.01;78.57
64821;BME280;51256;55.654;37.264;2022-09-28T03:52:05;97841.44;;;8.04;78.93
64821;BME280;51256;55.654;37.264;2022-09-28T03:54:31;97832.84;;;8.02;78.94
64821;BME280;51256;55.654;37.264;2022-09-28T03:56:56;97829.69;;;7.98;79.16
64821;BME280;51256;55.654;37.264;2022-09-28T03:59:22;97836.81;;;7.98;79.43
64821;BME280;51256;55.654;37.264;2022-09-28T04:01:48;97829.19;;;8.03;79.26
64821;BME280;51256;55.654;37.264;2022-09-28T04:04:14;97826.22;;;8.06;78.98
64821;BME280;51256;55.654;37.264;2022-09-28T04:06:39;97825.03;;;8.08;79.15
64821;BME280;51256;55.654;37.264;2022-09-28T04:09:05;97821.59;;;8.08;78.99
64821;BME280;51256;55.654;37.264;2022-09-28T04:11:30;97821.75;;;8.06;78.83
64821;BME280;51256;55.654;37.264;2022-09-28T04:13:56;97835.13;;;8.05;79.20
64821;BME280;51256;55.654;37.264;2022-09-28T04:16:21;97829.19;;;8.03;79.28
64821;BME280;51256;55.654;37.264;2022-09-28T04:18:47;97818.28;;;8.06;79.13
64821;BME280;51256;55.654;37.264;2022-09-28T04:21:15;97819.63;;;8.10;79.17
64821;BME280;51256;55.654;37.264;2022-09-28T04:23:40;97810.19;;;8.07;79.30
64821;BME280;51256;55.654;37.264;2022-09-28T04:26:13;97810.53;;;8.13;79.12
64821;BME280;51256;55.654;37.264;2022-09-28T04:28:41;97804.88;;;8.07;79.01
64821;BME280;51256;55.654;37.264;2022-09-28T04:31:26;97803.75;;;8.10;79.30
64821;BME280;51256;55.654;37.264;2022-09-28T04:33:52;97801.06;;;8.18;79.33
64821;BME280;51256;55.654;37.264;2022-09-28T04:36:18;97798.78;;;8.15;79.29
64821;BME280;51256;55.654;37.264;2022-09-28T04:38:44;97799.47;;;8.09;79.10
64821;BME280;51256;55.654;37.264;2022-09-28T04:41:09;97806.72;;;8.07;79.30
64821;BME280;51256;55.654;37.264;2022-09-28T04:43:36;97796.50;;;8.04;79.60
64821;BME280;51256;55.654;37.264;2022-09-28T04:46:01;97798.31;;;8.03;79.76
64821;BME280;51256;55.654;37.264;2022-09-28T04:48:28;97798.16;;;7.97;79.54
64821;BME280;51256;55.654;37.264;2022-09-28T04:50:56;97791.41;;;7.94;79.98
64821;BME280;51256;55.654;37.264;2022-09-28T04:53:22;97793.06;;;7.95;79.75
64821;BME280;51256;55.654;37.264;2022-09-28T04:58:24;97793.38;;;8.00;79.84
64821;BME280;51256;55.654;37.264;2022-09-28T05:00:50;97794.81;;;8.11;79.71
64821;BME280;51256;55.654;37.264;2022-09-28T05:03:16;97790.06;;;8.06;79.56
64821;BME280;51256;55.654;37.264;2022-09-28T05:05:43;97786.25;;;8.01;80.01
64821;BME280;51256;55.654;37.264;2022-09-28T05:08:09;97791.03;;;8.05;79.79
64821;BME280;51256;55.654;37.264;2022-09-28T05:10:35;97783.44;;;8.02;80.02
64821;BME280;51256;55.654;37.264;2022-09-28T05:13:01;97774.38;;;7.97;80.10
64821;BME280;51256;55.654;37.264;2022-09-28T05:15:26;97774.69;;;8.02;80.25
64821;BME280;51256;55.654;37.264;2022-09-28T05:17:52;97770.38;;;8.09;79.71
64821;BME280;51256;55.654;37.264;2022-09-28T05:20:17;97769.72;;;8.07;80.12
64821;BME280;51256;55.654;37.264;2022-09-28T05:22:43;97774.63;;;8.18;80.22
64821;BME280;51256;55.654;37.264;2022-09-28T05:25:08;97774.16;;;8.15;80.14
64821;BME280;51256;55.654;37.264;2022-09-28T05:27:34;97773.97;;;8.16;79.96
64821;BME280;51256;55.654;37.264;2022-09-28T05:29:59;97770.34;;;8.17;79.77
64821;BME280;51256;55.654;37.264;2022-09-28T05:32:25;97770.22;;;8.10;79.92
64821;BME280;51256;55.654;37.264;2022-09-28T05:34:50;97766.41;;;8.05;80.66
64821;BME280;51256;55.654;37.264;2022-09-28T05:37:16;97760.97;;;8.06;80.38
64821;BME280;51256;55.654;37.264;2022-09-28T05:39:41;97768.19;;;8.21;80.21
64821;BME280;51256;55.654;37.264;2022-09-28T05:42:06;97764.53;;;8.30;80.33
64821;BME280;51256;55.654;37.264;2022-09-28T05:44:32;97764.66;;;8.37;79.81
64821;BME280;51256;55.654;37.264;2022-09-28T05:46:57;97760.88;;;8.31;80.06
64821;BME280;51256;55.654;37.264;2022-09-28T05:49:23;97756.81;;;8.20;79.89
64821;BME280;51256;55.654;37.264;2022-09-28T05:51:48;97749.88;;;8.11;80.33
64821;BME280;51256;55.654;37.264;2022-09-28T05:54:14;97761.91;;;8.22;80.54
64821;BME280;51256;55.654;37.264;2022-09-28T05:56:39;97772.97;;;8.25;80.15
64821;BME280;51256;55.654;37.264;2022-09-28T05:59:05;97756.63;;;8.22;80.18
64821;BME280;51256;55.654;37.264;2022-09-28T06:01:30;97748.31;;;8.33;80.21
64821;BME280;51256;55.654;37.264;2022-09-28T06:03:56;97745.66;;;8.33;79.73
64821;BME280;51256;55.654;37.264;2022-09-28T06:06:21;97752.47;;;8.27;80.06
64821;BME280;51256;55.654;37.264;2022-09-28T06:08:47;97756.94;;;8.27;80.34
64821;BME280;51256;55.654;37.264;2022-09-28T06:11:13;97747.81;;;8.30;80.36
64821;BME280;51256;55.654;37.264;2022-09-28T06:13:39;97740.19;;;8.35;79.85
64821;BME280;51256;55.654;37.264;2022-09-28T06:16:06;97746.47;;;8.34;80.60
64821;BME280;51256;55.654;37.264;2022-09-28T06:18:32;97757.72;;;8.36;80.08
64821;BME280;51256;55.654;37.264;2022-09-28T06:20:57;97751.16;;;8.23;79.58
64821;BME280;51256;55.654;37.264;2022-09-28T06:23:23;97759.41;;;8.28;80.48
64821;BME280;51256;55.654;37.264;2022-09-28T06:25:48;97759.56;;;8.35;80.38
64821;BME280;51256;55.654;37.264;2022-09-28T06:28:14;97754.75;;;8.39;80.08
64821;BME280;51256;55.654;37.264;2022-09-28T06:30:41;97751.91;;;8.40;80.53
64821;BME280;51256;55.654;37.264;2022-09-28T06:33:11;97741.03;;;8.35;80.11
64821;BME280;51256;55.654;37.264;2022-09-28T06:35:37;97757.38;;;8.39;80.12
64821;BME280;51256;55.654;37.264;2022-09-28T06:38:03;97745.97;;;8.38;80.27
64821;BME280;51256;55.654;37.264;2022-09-28T06:40:29;97755.22;;;8.51;80.12
64821;BME280;51256;55.654;37.264;2022-09-28T06:42:56;97741.50;;;8.47;80.29
64821;BME280;51256;55.654;37.264;2022-09-28T06:45:23;97745.63;;;8.50;80.26
64821;BME280;51256;55.654;37.264;2022-09-28T06:47:57;97746.81;;;8.39;80.40
64821;BME280;51256;55.654;37.264;2022-09-28T06:50:24;97738.88;;;8.39;80.39
64821;BME280;51256;55.654;37.264;2022-09-28T06:52:51;97745.47;;;8.43;80.41
64821;BME280;51256;55.654;37.264;2022-09-28T06:55:17;97732.91;;;8.45;80.01
64821;BME280;51256;55.654;37.264;2022-09-28T06:57:42;97729.56;;;8.51;80.04
64821;BME280;51256;55.654;37.264;2022-09-28T07:00:08;97745.63;;;8.50;80.10
64821;BME280;51256;55.654;37.264;2022-09-28T07:02:34;97729.41;;;8.44;80.00
64821;BME280;51256;55.654;37.264;2022-09-28T07:05:00;97735.56;;;8.37;80.27
64821;BME280;51256;55.654;37.264;2022-09-28T07:07:27;97740.84;;;8.45;80.44
64821;BME280;51256;55.654;37.264;2022-09-28T07:09:53;97737.88;;;8.48;80.42
64821;BME280;51256;55.654;37.264;2022-09-28T07:12:19;97735.34;;;8.55;79.89
64821;BME280;51256;55.654;37.264;2022-09-28T07:14:46;97721.41;;;8.61;80.22
64821;BME280;51256;55.654;37.264;2022-09-28T07:17:11;97728.47;;;8.69;79.93
64821;BME280;51256;55.654;37.264;2022-09-28T07:19:36;97725.69;;;8.70;79.54
64821;BME280;51256;55.654;37.264;2022-09-28T07:22:02;97719.53;;;8.70;79.69
64821;BME280;51256;55.654;37.264;2022-09-28T07:24:27;97717.31;;;8.58;79.91
64821;BME280;51256;55.654;37.264;2022-09-28T07:26:54;97724.53;;;8.65;79.45
64821;BME280;51256;55.654;37.264;2022-09-28T07:29:20;97708.97;;;8.70;79.58
64821;BME280;51256;55.654;37.264;2022-09-28T07:31:46;97719.72;;;8.68;79.40
64821;BME280;51256;55.654;37.264;2022-09-28T07:34:11;97731.75;;;8.79;79.28
64821;BME280;51256;55.654;37.264;2022-09-28T07:36:37;97735.56;;;8.76;79.18
64821;BME280;51256;55.654;37.264;2022-09-28T07:39:03;97739.50;;;8.81;79.62
64821;BME280;51256;55.654;37.264;2022-09-28T07:41:28;97729.56;;;8.83;79.18
64821;BME280;51256;55.654;37.264;2022-09-28T07:44:00;97738.03;;;8.78;79.25
64821;BME280;51256;55.654;37.264;2022-09-28T07:46:32;97728.63;;;8.75;79.99
64821;BME280;51256;55.654;37.264;2022-09-28T07:48:57;97725.56;;;8.87;79.34
64821;BME280;51256;55.654;37.264;2022-09-28T07:51:23;97734.50;;;9.09;79.30
64821;BME280;51256;55.654;37.264;2022-09-28T07:53:48;97727.53;;;9.31;78.81
64821;BME280;51256;55.654;37.264;2022-09-28T07:56:13;97734.41;;;9.40;78.27
64821;BME280;51256;55.654;37.264;2022-09-28T07:58:41;97711.91;;;9.36;77.62
64821;BME280;51256;55.654;37.264;2022-09-28T08:01:10;97713.41;;;9.54;77.76
64821;BME280;51256;55.654;37.264;2022-09-28T08:03:37;97715.25;;;9.53;77.24
64821;BME280;51256;55.654;37.264;2022-09-28T08:06:05;97704.75;;;9.60;76.77
64821;BME280;51256;55.654;37.264;2022-09-28T08:08:34;97700.56;;;9.66;76.98
64821;BME280;51256;55.654;37.264;2022-09-28T08:11:00;97714.09;;;9.71;76.69
64821;BME280;51256;55.654;37.264;2022-09-28T08:13:26;97708.97;;;9.54;76.89
64821;BME280;51256;55.654;37.264;2022-09-28T08:15:52;97710.16;;;9.52;77.14
64821;BME280;51256;55.654;37.264;2022-09-28T08:18:19;97707.41;;;9.60;76.92
64821;BME280;51256;55.654;37.264;2022-09-28T08:20:44;97716.53;;;9.72;76.87
64821;BME280;51256;55.654;37.264;2022-09-28T08:23:28;97708.59;;;9.87;76.39
64821;BME280;51256;55.654;37.264;2022-09-28T08:25:54;97703.50;;;9.86;76.18
64821;BME280;51256;55.654;37.264;2022-09-28T08:28:21;97705.47;;;9.69;76.21
64821;BME280;51256;55.654;37.264;2022-09-28T08:30:47;97710.16;;;9.67;76.20
64821;BME280;51256;55.654;37.264;2022-09-28T08:33:15;97700.09;;;9.77;76.26
64821;BME280;51256;55.654;37.264;2022-09-28T08:35:56;97708.25;;;9.90;75.96
64821;BME280;51256;55.654;37.264;2022-09-28T08:38:24;97709.16;;;9.98;75.24
64821;BME280;51256;55.654;37.264;2022-09-28T08:45:55;97702.84;;;10.14;74.55
64821;BME280;51256;55.654;37.264;2022-09-28T08:48:26;97697.81;;;10.04;74.88
64821;BME280;51256;55.654;37.264;2022-09-28T08:51:15;97704.13;;;10.03;75.46
64821;BME280;51256;55.654;37.264;2022-09-28T08:59:02;97698.81;;;10.18;74.69
64821;BME280;51256;55.654;37.264;2022-09-28T09:01:36;97700.81;;;10.16;74.77
64821;BME280;51256;55.654;37.264;2022-09-28T09:04:04;97711.34;;;10.24;75.02
64821;BME280;51256;55.654;37.264;2022-09-28T09:12:41;97711.94;;;10.56;73.75
64821;BME280;51256;55.654;37.264;2022-09-28T09:17:55;97713.38;;;10.59;73.89
64821;BME280;51256;55.654;37.264;2022-09-28T09:23:11;97711.28;;;10.54;72.98
64821;BME280;51256;55.654;37.264;2022-09-28T09:25:49;97717.25;;;10.56;72.87
64821;BME280;51256;55.654;37.264;2022-09-28T09:28:31;97723.75;;;10.53;73.10
64821;BME280;51256;55.654;37.264;2022-09-28T09:33:57;97725.69;;;10.45;72.60
64821;BME280;51256;55.654;37.264;2022-09-28T09:39:27;97726.03;;;10.57;72.82
64821;BME280;51256;55.654;37.264;2022-09-28T09:42:33;97722.75;;;10.54;73.06
64821;BME280;51256;55.654;37.264;2022-09-28T09:47:39;97719.00;;;10.49;73.18
64821;BME280;51256;55.654;37.264;2022-09-28T09:50:31;97701.00;;;10.44;73.08
64821;BME280;51256;55.654;37.264;2022-09-28T09:53:10;97703.06;;;10.34;73.00
64821;BME280;51256;55.654;37.264;2022-09-28T09:55:44;97710.56;;;10.45;73.45
64821;BME280;51256;55.654;37.264;2022-09-28T09:58:18;97720.19;;;10.46;72.87
64821;BME280;51256;55.654;37.264;2022-09-28T10:00:49;97718.13;;;10.42;73.25
64821;BME280;51256;55.654;37.264;2022-09-28T10:05:55;97713.13;;;10.53;73.12
64821;BME280;51256;55.654;37.264;2022-09-28T10:08:22;97719.97;;;10.63;72.62
64821;BME280;51256;55.654;37.264;2022-09-28T10:13:31;97713.78;;;10.99;71.90
64821;BME280;51256;55.654;37.264;2022-09-28T10:15:58;97710.13;;;11.00;71.16
64821;BME280;51256;55.654;37.264;2022-09-28T10:18:24;97717.91;;;11.01;71.20
64821;BME280;51256;55.654;37.264;2022-09-28T10:20:51;97720.84;;;10.70;70.60
64821;BME280;51256;55.654;37.264;2022-09-28T10:23:23;97721.28;;;10.52;71.37
64821;BME280;51256;55.654;37.264;2022-09-28T10:25:53;97724.88;;;10.44;72.00
64821;BME280;51256;55.654;37.264;2022-09-28T10:28:41;97703.81;;;10.28;72.18
64821;BME280;51256;55.654;37.264;2022-09-28T10:31:44;97709.50;;;10.25;72.65
64821;BME280;51256;55.654;37.264;2022-09-28T10:34:12;97716.75;;;10.16;72.57
64821;BME280;51256;55.654;37.264;2022-09-28T10:39:42;97708.31;;;10.42;73.04
64821;BME280;51256;55.654;37.264;2022-09-28T10:44:53;97715.94;;;10.67;71.92
64821;BME280;51256;55.654;37.264;2022-09-28T10:47:22;97708.34;;;10.64;71.26
64821;BME280;51256;55.654;37.264;2022-09-28T10:49:49;97713.28;;;10.67;71.64
64821;BME280;51256;55.654;37.264;2022-09-28T10:52:32;97710.69;;;10.74;71.46
64821;BME280;51256;55.654;37.264;2022-09-28T10:54:59;97710.69;;;10.74;71.66
64821;BME280;51256;55.654;37.264;2022-09-28T10:57:35;97717.34;;;10.84;71.09
64821;BME280;51256;55.654;37.264;2022-09-28T11:00:03;97706.97;;;10.90;71.01
64821;BME280;51256;55.654;37.264;2022-09-28T11:02:34;97697.56;;;10.87;70.88
64821;BME280;51256;55.654;37.264;2022-09-28T11:05:04;97712.97;;;10.98;71.17
64821;BME280;51256;55.654;37.264;2022-09-28T11:07:31;97710.44;;;10.90;71.32
64821;BME280;51256;55.654;37.264;2022-09-28T11:09:59;97701.66;;;10.90;71.70
64821;BME280;51256;55.654;37.264;2022-09-28T11:12:34;97704.97;;;10.92;71.30
64821;BME280;51256;55.654;37.264;2022-09-28T11:15:04;97719.75;;;11.01;71.06
64821;BME280;51256;55.654;37.264;2022-09-28T11:17:33;97721.97;;;10.97;71.08
64821;BME280;51256;55.654;37.264;2022-09-28T11:22:47;97722.59;;;10.99;71.07
64821;BME280;51256;55.654;37.264;2022-09-28T11:27:54;97718.28;;;10.98;70.72
64821;BME280;51256;55.654;37.264;2022-09-28T11:30:26;97736.03;;;10.98;70.78
64821;BME280;51256;55.654;37.264;2022-09-28T11:32:56;97718.34;;;10.83;70.75
64821;BME280;51256;55.654;37.264;2022-09-28T11:35:44;97729.22;;;10.89;70.39
64821;BME280;51256;55.654;37.264;2022-09-28T11:52:27;97721.53;;;10.57;70.99
64821;BME280;51256;55.654;37.264;2022-09-28T11:55:34;97725.00;;;10.58;70.93
64821;BME280;51256;55.654;37.264;2022-09-28T11:58:21;97734.63;;;10.59;71.29
64821;BME280;51256;55.654;37.264;2022-09-28T12:01:02;97733.25;;;10.48;71.31
64821;BME280;51256;55.654;37.264;2022-09-28T12:03:54;97735.19;;;10.39;71.28
64821;BME280;51256;55.654;37.264;2022-09-28T12:06:30;97739.31;;;10.27;72.45
64821;BME280;51256;55.654;37.264;2022-09-28T12:09:04;97740.78;;;10.29;72.02
64821;BME280;51256;55.654;37.264;2022-09-28T12:11:35;97738.88;;;10.23;72.39
64821;BME280;51256;55.654;37.264;2022-09-28T12:14:05;97740.59;;;10.16;72.25
64821;BME280;51256;55.654;37.264;2022-09-28T12:16:49;97743.06;;;10.17;72.89
64821;BME280;51256;55.654;37.264;2022-09-28T12:19:21;97733.91;;;10.05;72.89
64821;BME280;51256;55.654;37.264;2022-09-28T12:21:52;97725.25;;;9.96;72.61
64821;BME280;51256;55.654;37.264;2022-09-28T12:24:32;97732.28;;;10.04;72.50
64821;BME280;51256;55.654;37.264;2022-09-28T12:27:09;97740.41;;;10.02;72.45
64821;BME280;51256;55.654;37.264;2022-09-28T12:29:56;97734.75;;;10.05;72.58
64821;BME280;51256;55.654;37.264;2022-09-28T12:35:18;97731.47;;;10.03;72.87
64821;BME280;51256;55.654;37.264;2022-09-28T12:46:20;97732.00;;;9.99;72.98
64821;BME280;51256;55.654;37.264;2022-09-28T12:49:13;97736.03;;;9.95;73.78
64821;BME280;51256;55.654;37.264;2022-09-28T12:51:57;97727.63;;;9.91;73.82
64821;BME280;51256;55.654;37.264;2022-09-28T13:12:58;97734.03;;;10.12;72.84
64821;BME280;51256;55.654;37.264;2022-09-28T13:15:42;97744.19;;;10.08;73.62
64821;BME280;51256;55.654;37.264;2022-09-28T13:18:21;97740.22;;;10.04;73.44
64821;BME280;51256;55.654;37.264;2022-09-28T13:23:26;97735.94;;;10.03;74.03
64821;BME280;51256;55.654;37.264;2022-09-28T13:28:23;97737.13;;;10.15;73.77
64821;BME280;51256;55.654;37.264;2022-09-28T13:30:51;97723.78;;;10.09;73.24
64821;BME280;51256;55.654;37.264;2022-09-28T13:33:38;97725.50;;;10.16;73.47
64821;BME280;51256;55.654;37.264;2022-09-28T13:38:56;97727.25;;;10.24;73.53
64821;BME280;51256;55.654;37.264;2022-09-28T13:41:36;97721.38;;;10.29;73.62
64821;BME280;51256;55.654;37.264;2022-09-28T13:47:15;97723.59;;;10.40;73.56
64821;BME280;51256;55.654;37.264;2022-09-28T13:52:44;97729.28;;;10.07;73.47
64821;BME280;51256;55.654;37.264;2022-09-28T13:55:26;97732.28;;;10.04;74.16
64821;BME280;51256;55.654;37.264;2022-09-28T13:58:00;97728.63;;;10.05;74.28
64821;BME280;51256;55.654;37.264;2022-09-28T14:08:43;97737.69;;;10.11;73.76
64821;BME280;51256;55.654;37.264;2022-09-28T14:16:41;97746.72;;;10.16;73.95
64821;BME280;51256;55.654;37.264;2022-09-28T14:19:08;97751.41;;;10.14;74.04
64821;BME280;51256;55.654;37.264;2022-09-28T14:24:32;97752.66;;;10.03;74.46
64821;BME280;51256;55.654;37.264;2022-09-28T14:29:29;97751.66;;;9.89;74.41
64821;BME280;51256;55.654;37.264;2022-09-28T14:31:57;97752.00;;;9.86;74.62
64821;BME280;51256;55.654;37.264;2022-09-28T14:34:32;97762.44;;;9.88;74.89
64821;BME280;51256;55.654;37.264;2022-09-28T14:36:58;97768.38;;;9.90;74.53
64821;BME280;51256;55.654;37.264;2022-09-28T14:39:44;97770.56;;;9.86;75.33
64821;BME280;51256;55.654;37.264;2022-09-28T14:42:30;97775.13;;;9.93;75.22
64821;BME280;51256;55.654;37.264;2022-09-28T14:47:40;97787.19;;;9.95;74.82
64821;BME280;51256;55.654;37.264;2022-09-28T14:50:24;97782.75;;;9.96;74.97
64821;BME280;51256;55.654;37.264;2022-09-28T14:52:51;97793.34;;;9.96;74.65
64821;BME280;51256;55.654;37.264;2022-09-28T14:55:25;97785.31;;;9.89;75.15
64821;BME280;51256;55.654;37.264;2022-09-28T14:57:55;97800.91;;;9.99;74.96
64821;BME280;51256;55.654;37.264;2022-09-28T15:00:24;97796.09;;;10.02;75.42
64821;BME280;51256;55.654;37.264;2022-09-28T15:02:53;97799.00;;;10.07;74.72
64821;BME280;51256;55.654;37.264;2022-09-28T15:05:27;97799.75;;;10.01;74.75
64821;BME280;51256;55.654;37.264;2022-09-28T15:07:54;97810.06;;;9.96;75.09
64821;BME280;51256;55.654;37.264;2022-09-28T15:10:31;97806.59;;;9.96;75.03
64821;BME280;51256;55.654;37.264;2022-09-28T15:12:58;97812.72;;;9.96;74.91
64821;BME280;51256;55.654;37.264;2022-09-28T15:18:28;97815.56;;;9.95;74.71
64821;BME280;51256;55.654;37.264;2022-09-28T15:20:57;97819.56;;;9.90;74.67
64821;BME280;51256;55.654;37.264;2022-09-28T15:23:24;97824.31;;;9.95;75.42
64821;BME280;51256;55.654;37.264;2022-09-28T15:25:52;97820.75;;;9.88;75.65
64821;BME280;51256;55.654;37.264;2022-09-28T15:28:20;97829.91;;;9.85;75.13
64821;BME280;51256;55.654;37.264;2022-09-28T15:30:49;97828.44;;;9.83;75.53
64821;BME280;51256;55.654;37.264;2022-09-28T15:36:11;97833.78;;;9.74;75.58
64821;BME280;51256;55.654;37.264;2022-09-28T15:38:39;97841.50;;;9.84;75.47
64821;BME280;51256;55.654;37.264;2022-09-28T15:41:06;97836.38;;;9.83;75.12
64821;BME280;51256;55.654;37.264;2022-09-28T15:43:34;97828.78;;;9.80;75.16
64821;BME280;51256;55.654;37.264;2022-09-28T15:46:17;97836.06;;;9.78;75.84
64821;BME280;51256;55.654;37.264;2022-09-28T15:48:53;97837.44;;;9.73;75.99
64821;BME280;51256;55.654;37.264;2022-09-28T15:51:22;97828.06;;;9.63;76.71
64821;BME280;51256;55.654;37.264;2022-09-28T15:53:53;97845.22;;;9.75;76.29
64821;BME280;51256;55.654;37.264;2022-09-28T15:56:20;97834.78;;;9.73;75.95
64821;BME280;51256;55.654;37.264;2022-09-28T16:01:39;97838.09;;;9.76;75.78
64821;BME280;51256;55.654;37.264;2022-09-28T16:12:30;97834.78;;;9.73;76.05